sensor_id;sensor_type;location;lat;lon;timestamp;temperature;humidity
25918;DHT22;13899;51.174;4.456;2023-03-01T00:01:10;5.00;99.90
25918;DHT22;13899;51.174;4.456;2023-03-01T00:03:36;5.00;99.90
25918;DHT22;13899;51.174;4.456;2023-03-01T00:06:03;4.90;99.90
25918;DHT22;13899;51.174;4.456;2023-03-01T00:08:29;4.40;99.90
25918;DHT22;13899;51.174;4.456;2023-03-01T00:11:25;4.30;99.90
25918;DHT22;13899;51.174;4.456;2023-03-01T00:13:52;3.90;99.90
25918;DHT22;13899;51.174;4.456;2023-03-01T00:16:24;4.00;99.90
25918;DHT22;13899;51.174;4.456;2023-03-01T00:18:50;4.10;99.90
25918;DHT22;13899;51.174;4.456;2023-03-01T00:21:17;4.00;99.90
25918;DHT22;13899;51.174;4.456;2023-03-01T00:23:43;4.10;99.90
25918;DHT22;13899;51.174;4.456;2023-03-01T00:26:12;4.10;99.90
25918;DHT22;13899;51.174;4.456;2023-03-01T00:28:38;4.40;99.90
25918;DHT22;13899;51.174;4.456;2023-03-01T00:31:18;4.30;99.90
25918;DHT22;13899;51.174;4.456;2023-03-01T00:33:45;4.50;99.90
25918;DHT22;13899;51.174;4.456;2023-03-01T00:36:13;4.70;99.90
25918;DHT22;13899;51.174;4.456;2023-03-01T00:38:48;4.20;99.90
25918;DHT22;13899;51.174;4.456;2023-03-01T00:41:34;4.20;99.90
25918;DHT22;13899;51.174;4.456;2023-03-01T00:44:28;4.40;99.90
25918;DHT22;13899;51.174;4.456;2023-03-01T00:46:57;4.30;99.90
25918;DHT22;13899;51.174;4.456;2023-03-01T00:49:27;4.20;99.90
25918;DHT22;13899;51.174;4.456;2023-03-01T00:52:12;4.40;99.90
25918;DHT22;13899;51.174;4.456;2023-03-01T00:54:38;4.00;99.90
25918;DHT22;13899;51.174;4.456;2023-03-01T00:57:24;4.20;99.90
25918;DHT22;13899;51.174;4.456;2023-03-01T01:00:13;4.30;99.90
25918;DHT22;13899;51.174;4.456;2023-03-01T01:02:59;4.00;99.90
25918;DHT22;13899;51.174;4.456;2023-03-01T01:05:24;4.10;99.90
25918;DHT22;13899;51.174;4.456;2023-03-01T01:07:50;3.90;99.90
25918;DHT22;13899;51.174;4.456;2023-03-01T01:10:16;3.70;99.90
25918;DHT22;13899;51.174;4.456;2023-03-01T01:13:01;3.70;99.90
25918;DHT22;13899;51.174;4.456;2023-03-01T01:15:27;3.50;99.90
25918;DHT22;13899;51.174;4.456;2023-03-01T01:17:52;3.50;99.90
25918;DHT22;13899;51.174;4.456;2023-03-01T01:20:19;3.10;99.90
25918;DHT22;13899;51.174;4.456;2023-03-01T01:22:52;2.90;99.90
25918;DHT22;13899;51.174;4.456;2023-03-01T01:25:18;3.00;99.90
25918;DHT22;13899;51.174;4.456;2023-03-01T01:27:44;3.20;99.90
25918;DHT22;13899;51.174;4.456;2023-03-01T01:30:10;3.10;99.90
25918;DHT22;13899;51.174;4.456;2023-03-01T01:32:35;3.10;99.90
25918;DHT22;13899;51.174;4.456;2023-03-01T01:35:01;3.30;99.90
25918;DHT22;13899;51.174;4.456;2023-03-01T01:37:29;3.80;99.90
25918;DHT22;13899;51.174;4.456;2023-03-01T01:39:59;4.00;99.90
25918;DHT22;13899;51.174;4.456;2023-03-01T01:42:26;3.90;99.90
25918;DHT22;13899;51.174;4.456;2023-03-01T01:45:28;3.90;99.90
25918;DHT22;13899;51.174;4.456;2023-03-01T01:47:57;4.00;99.90
25918;DHT22;13899;51.174;4.456;2023-03-01T01:50:23;4.00;99.90
25918;DHT22;13899;51.174;4.456;2023-03-01T01:52:50;3.80;99.90
25918;DHT22;13899;51.174;4.456;2023-03-01T01:55:19;3.60;99.90
25918;DHT22;13899;51.174;4.456;2023-03-01T01:57:52;3.80;99.90
25918;DHT22;13899;51.174;4.456;2023-03-01T02:00:25;4.00;99.90
25918;DHT22;13899;51.174;4.456;2023-03-01T02:03:00;4.00;99.90
25918;DHT22;13899;51.174;4.456;2023-03-01T02:08:11;4.40;99.90
25918;DHT22;13899;51.174;4.456;2023-03-01T02:10:38;4.30;99.90
25918;DHT22;13899;51.174;4.456;2023-03-01T02:13:06;4.40;99.90
25918;DHT22;13899;51.174;4.456;2023-03-01T02:15:33;4.30;99.90
25918;DHT22;13899;51.174;4.456;2023-03-01T02:17:59;4.20;99.90
25918;DHT22;13899;51.174;4.456;2023-03-01T02:20:44;4.50;99.90
25918;DHT22;13899;51.174;4.456;2023-03-01T02:23:13;4.60;99.90
25918;DHT22;13899;51.174;4.456;2023-03-01T02:26:03;4.50;99.90
25918;DHT22;13899;51.174;4.456;2023-03-01T02:28:34;4.40;99.90
25918;DHT22;13899;51.174;4.456;2023-03-01T02:31:02;4.60;99.90
25918;DHT22;13899;51.174;4.456;2023-03-01T02:33:47;4.40;99.90
25918;DHT22;13899;51.174;4.456;2023-03-01T02:36:21;4.30;99.90
25918;DHT22;13899;51.174;4.456;2023-03-01T02:38:49;4.20;99.90
25918;DHT22;13899;51.174;4.456;2023-03-01T02:41:17;4.10;99.90
25918;DHT22;13899;51.174;4.456;2023-03-01T02:43:44;3.80;99.90
25918;DHT22;13899;51.174;4.456;2023-03-01T02:46:22;3.50;99.90
25918;DHT22;13899;51.174;4.456;2023-03-01T02:48:54;3.50;99.90
25918;DHT22;13899;51.174;4.456;2023-03-01T02:51:48;4.10;99.90
25918;DHT22;13899;51.174;4.456;2023-03-01T02:54:31;3.80;99.90
25918;DHT22;13899;51.174;4.456;2023-03-01T02:56:59;3.50;99.90
25918;DHT22;13899;51.174;4.456;2023-03-01T02:59:29;3.50;99.90
25918;DHT22;13899;51.174;4.456;2023-03-01T03:01:55;3.80;99.90
25918;DHT22;13899;51.174;4.456;2023-03-01T03:04:21;3.80;99.90
25918;DHT22;13899;51.174;4.456;2023-03-01T03:06:49;4.00;99.90
25918;DHT22;13899;51.174;4.456;2023-03-01T03:09:16;4.20;99.90
25918;DHT22;13899;51.174;4.456;2023-03-01T03:11:42;3.70;99.90
25918;DHT22;13899;51.174;4.456;2023-03-01T03:14:10;3.80;99.90
25918;DHT22;13899;51.174;4.456;2023-03-01T03:16:46;3.90;99.90
25918;DHT22;13899;51.174;4.456;2023-03-01T03:19:13;4.00;99.90
25918;DHT22;13899;51.174;4.456;2023-03-01T03:21:39;4.00;99.90
25918;DHT22;13899;51.174;4.456;2023-03-01T03:24:05;3.90;99.90
25918;DHT22;13899;51.174;4.456;2023-03-01T03:26:32;3.50;99.90
25918;DHT22;13899;51.174;4.456;2023-03-01T03:28:57;3.40;99.90
25918;DHT22;13899;51.174;4.456;2023-03-01T03:31:23;3.40;99.90
25918;DHT22;13899;51.174;4.456;2023-03-01T03:33:49;3.30;99.90
25918;DHT22;13899;51.174;4.456;2023-03-01T03:36:16;2.80;99.90
25918;DHT22;13899;51.174;4.456;2023-03-01T03:38:43;3.10;99.90
25918;DHT22;13899;51.174;4.456;2023-03-01T03:41:09;3.10;99.90
25918;DHT22;13899;51.174;4.456;2023-03-01T03:43:38;3.00;99.90
25918;DHT22;13899;51.174;4.456;2023-03-01T03:46:04;2.80;99.90
25918;DHT22;13899;51.174;4.456;2023-03-01T03:48:40;2.80;99.90
25918;DHT22;13899;51.174;4.456;2023-03-01T03:51:09;2.80;99.90
25918;DHT22;13899;51.174;4.456;2023-03-01T03:53:35;2.60;99.90
25918;DHT22;13899;51.174;4.456;2023-03-01T03:56:01;2.50;99.90
25918;DHT22;13899;51.174;4.456;2023-03-01T03:58:27;2.70;99.90
25918;DHT22;13899;51.174;4.456;2023-03-01T04:00:55;2.80;99.90
25918;DHT22;13899;51.174;4.456;2023-03-01T04:03:25;3.20;99.90
25918;DHT22;13899;51.174;4.456;2023-03-01T04:05:52;2.90;99.90
25918;DHT22;13899;51.174;4.456;2023-03-01T04:08:23;2.80;99.90
25918;DHT22;13899;51.174;4.456;2023-03-01T04:10:52;2.50;99.90
25918;DHT22;13899;51.174;4.456;2023-03-01T04:13:24;2.70;99.90
25918;DHT22;13899;51.174;4.456;2023-03-01T04:15:56;3.20;99.90
25918;DHT22;13899;51.174;4.456;2023-03-01T04:18:26;3.20;99.90
25918;DHT22;13899;51.174;4.456;2023-03-01T04:20:53;3.00;99.90
25918;DHT22;13899;51.174;4.456;2023-03-01T04:23:20;2.90;99.90
25918;DHT22;13899;51.174;4.456;2023-03-01T04:25:47;3.20;99.90
25918;DHT22;13899;51.174;4.456;2023-03-01T04:28:49;3.10;99.90
25918;DHT22;13899;51.174;4.456;2023-03-01T04:31:17;3.20;99.90
25918;DHT22;13899;51.174;4.456;2023-03-01T04:33:45;3.00;99.90
25918;DHT22;13899;51.174;4.456;2023-03-01T04:36:13;2.60;99.90
25918;DHT22;13899;51.174;4.456;2023-03-01T04:38:40;2.50;99.90
25918;DHT22;13899;51.174;4.456;2023-03-01T04:41:07;2.40;99.90
25918;DHT22;13899;51.174;4.456;2023-03-01T04:43:34;2.60;99.90
25918;DHT22;13899;51.174;4.456;2023-03-01T04:46:01;2.70;99.90
25918;DHT22;13899;51.174;4.456;2023-03-01T04:48:28;2.70;99.90
25918;DHT22;13899;51.174;4.456;2023-03-01T04:50:54;2.70;99.90
25918;DHT22;13899;51.174;4.456;2023-03-01T04:53:22;2.70;99.90
25918;DHT22;13899;51.174;4.456;2023-03-01T04:55:51;2.80;99.90
25918;DHT22;13899;51.174;4.456;2023-03-01T04:58:41;3.10;99.90
25918;DHT22;13899;51.174;4.456;2023-03-01T05:01:19;3.20;99.90
25918;DHT22;13899;51.174;4.456;2023-03-01T05:03:54;3.20;99.90
25918;DHT22;13899;51.174;4.456;2023-03-01T05:06:37;2.30;99.90
25918;DHT22;13899;51.174;4.456;2023-03-01T05:09:12;2.30;99.90
25918;DHT22;13899;51.174;4.456;2023-03-01T05:11:37;2.50;99.90
25918;DHT22;13899;51.174;4.456;2023-03-01T05:14:04;2.10;99.90
25918;DHT22;13899;51.174;4.456;2023-03-01T05:16:30;2.30;99.90
25918;DHT22;13899;51.174;4.456;2023-03-01T05:18:57;2.40;99.90
25918;DHT22;13899;51.174;4.456;2023-03-01T05:21:24;3.00;99.90
25918;DHT22;13899;51.174;4.456;2023-03-01T05:23:49;2.70;99.90
25918;DHT22;13899;51.174;4.456;2023-03-01T05:26:19;2.90;99.90
25918;DHT22;13899;51.174;4.456;2023-03-01T05:28:47;2.80;99.90
25918;DHT22;13899;51.174;4.456;2023-03-01T05:31:12;2.80;99.90
25918;DHT22;13899;51.174;4.456;2023-03-01T05:33:41;2.80;99.90
25918;DHT22;13899;51.174;4.456;2023-03-01T05:36:08;2.70;99.90
25918;DHT22;13899;51.174;4.456;2023-03-01T05:38:37;2.70;99.90
25918;DHT22;13899;51.174;4.456;2023-03-01T05:41:03;2.90;99.90
25918;DHT22;13899;51.174;4.456;2023-03-01T05:43:36;2.50;99.90
25918;DHT22;13899;51.174;4.456;2023-03-01T05:46:02;2.80;99.90
25918;DHT22;13899;51.174;4.456;2023-03-01T05:48:28;2.70;99.90
25918;DHT22;13899;51.174;4.456;2023-03-01T05:50:53;2.80;99.90
25918;DHT22;13899;51.174;4.456;2023-03-01T05:53:20;2.60;99.90
25918;DHT22;13899;51.174;4.456;2023-03-01T05:55:48;2.40;99.90
25918;DHT22;13899;51.174;4.456;2023-03-01T05:58:18;2.80;99.90
25918;DHT22;13899;51.174;4.456;2023-03-01T06:00:46;2.40;99.90
25918;DHT22;13899;51.174;4.456;2023-03-01T06:03:13;2.50;99.90
25918;DHT22;13899;51.174;4.456;2023-03-01T06:05:40;2.90;99.90
25918;DHT22;13899;51.174;4.456;2023-03-01T06:08:08;3.00;99.90
25918;DHT22;13899;51.174;4.456;2023-03-01T06:10:34;3.10;99.90
25918;DHT22;13899;51.174;4.456;2023-03-01T06:13:01;3.00;99.90
25918;DHT22;13899;51.174;4.456;2023-03-01T06:15:27;2.90;99.90
25918;DHT22;13899;51.174;4.456;2023-03-01T06:17:54;2.90;99.90
25918;DHT22;13899;51.174;4.456;2023-03-01T06:20:24;3.00;99.90
25918;DHT22;13899;51.174;4.456;2023-03-01T06:22:50;2.90;99.90
25918;DHT22;13899;51.174;4.456;2023-03-01T06:25:21;2.70;99.90
25918;DHT22;13899;51.174;4.456;2023-03-01T06:27:48;2.90;99.90
25918;DHT22;13899;51.174;4.456;2023-03-01T06:30:19;3.00;99.90
25918;DHT22;13899;51.174;4.456;2023-03-01T06:32:44;3.00;99.90
25918;DHT22;13899;51.174;4.456;2023-03-01T06:35:12;3.00;99.90
25918;DHT22;13899;51.174;4.456;2023-03-01T06:37:38;2.90;99.90
25918;DHT22;13899;51.174;4.456;2023-03-01T06:40:05;2.90;99.90
25918;DHT22;13899;51.174;4.456;2023-03-01T06:42:48;3.10;99.90
25918;DHT22;13899;51.174;4.456;2023-03-01T06:45:14;3.10;99.90
25918;DHT22;13899;51.174;4.456;2023-03-01T06:47:40;3.10;99.90
25918;DHT22;13899;51.174;4.456;2023-03-01T06:50:06;2.80;99.90
25918;DHT22;13899;51.174;4.456;2023-03-01T06:52:32;2.90;99.90
25918;DHT22;13899;51.174;4.456;2023-03-01T06:54:58;3.10;99.90
25918;DHT22;13899;51.174;4.456;2023-03-01T06:57:24;3.10;99.90
25918;DHT22;13899;51.174;4.456;2023-03-01T06:59:50;2.80;99.90
25918;DHT22;13899;51.174;4.456;2023-03-01T07:02:15;3.00;99.90
25918;DHT22;13899;51.174;4.456;2023-03-01T07:04:42;3.00;99.90
25918;DHT22;13899;51.174;4.456;2023-03-01T07:07:08;2.80;99.90
25918;DHT22;13899;51.174;4.456;2023-03-01T07:09:34;3.00;99.90
25918;DHT22;13899;51.174;4.456;2023-03-01T07:11:59;3.30;99.90
25918;DHT22;13899;51.174;4.456;2023-03-01T07:14:25;3.10;99.90
25918;DHT22;13899;51.174;4.456;2023-03-01T07:16:54;3.00;99.90
25918;DHT22;13899;51.174;4.456;2023-03-01T07:19:21;3.10;99.90
25918;DHT22;13899;51.174;4.456;2023-03-01T07:21:47;3.00;99.90
25918;DHT22;13899;51.174;4.456;2023-03-01T07:24:13;3.20;99.90
25918;DHT22;13899;51.174;4.456;2023-03-01T07:26:38;3.00;99.90
25918;DHT22;13899;51.174;4.456;2023-03-01T07:29:06;2.80;99.90
25918;DHT22;13899;51.174;4.456;2023-03-01T07:31:32;3.00;99.90
25918;DHT22;13899;51.174;4.456;2023-03-01T07:33:58;3.20;99.90
25918;DHT22;13899;51.174;4.456;2023-03-01T07:36:24;2.50;99.90
25918;DHT22;13899;51.174;4.456;2023-03-01T07:38:50;2.50;99.90
25918;DHT22;13899;51.174;4.456;2023-03-01T07:41:16;2.60;99.90
25918;DHT22;13899;51.174;4.456;2023-03-01T07:43:42;3.20;99.90
25918;DHT22;13899;51.174;4.456;2023-03-01T07:46:08;3.40;99.90
25918;DHT22;13899;51.174;4.456;2023-03-01T07:48:34;3.30;99.90
25918;DHT22;13899;51.174;4.456;2023-03-01T07:51:04;3.50;99.90
25918;DHT22;13899;51.174;4.456;2023-03-01T07:53:31;3.50;99.90
25918;DHT22;13899;51.174;4.456;2023-03-01T07:56:11;3.70;99.90
25918;DHT22;13899;51.174;4.456;2023-03-01T07:58:39;3.70;99.90
25918;DHT22;13899;51.174;4.456;2023-03-01T08:01:07;3.70;99.90
25918;DHT22;13899;51.174;4.456;2023-03-01T08:03:33;4.00;99.90
25918;DHT22;13899;51.174;4.456;2023-03-01T08:06:00;4.10;99.90
25918;DHT22;13899;51.174;4.456;2023-03-01T08:08:26;3.80;99.90
25918;DHT22;13899;51.174;4.456;2023-03-01T08:10:55;4.30;99.90
25918;DHT22;13899;51.174;4.456;2023-03-01T08:13:21;4.20;99.90
25918;DHT22;13899;51.174;4.456;2023-03-01T08:15:48;4.00;99.90
25918;DHT22;13899;51.174;4.456;2023-03-01T08:18:15;4.00;99.90
25918;DHT22;13899;51.174;4.456;2023-03-01T08:20:40;3.90;99.90
25918;DHT22;13899;51.174;4.456;2023-03-01T08:23:06;3.70;99.90
25918;DHT22;13899;51.174;4.456;2023-03-01T08:25:31;4.00;99.90
25918;DHT22;13899;51.174;4.456;2023-03-01T08:27:57;4.00;99.90
25918;DHT22;13899;51.174;4.456;2023-03-01T08:30:23;3.60;99.90
25918;DHT22;13899;51.174;4.456;2023-03-01T08:32:49;3.70;99.90
25918;DHT22;13899;51.174;4.456;2023-03-01T08:35:15;3.70;99.90
25918;DHT22;13899;51.174;4.456;2023-03-01T08:37:41;3.90;99.90
25918;DHT22;13899;51.174;4.456;2023-03-01T08:40:09;4.00;99.90
25918;DHT22;13899;51.174;4.456;2023-03-01T08:42:36;4.30;99.90
25918;DHT22;13899;51.174;4.456;2023-03-01T08:45:05;4.10;99.90
25918;DHT22;13899;51.174;4.456;2023-03-01T08:47:30;4.10;99.90
25918;DHT22;13899;51.174;4.456;2023-03-01T08:49:56;4.30;99.90
25918;DHT22;13899;51.174;4.456;2023-03-01T08:52:22;4.30;99.90
25918;DHT22;13899;51.174;4.456;2023-03-01T08:54:48;4.30;99.90
25918;DHT22;13899;51.174;4.456;2023-03-01T08:57:14;4.40;99.90
25918;DHT22;13899;51.174;4.456;2023-03-01T08:59:40;4.30;99.90
25918;DHT22;13899;51.174;4.456;2023-03-01T09:02:17;4.30;99.90
25918;DHT22;13899;51.174;4.456;2023-03-01T09:04:43;4.20;99.90
25918;DHT22;13899;51.174;4.456;2023-03-01T09:07:10;4.10;99.90
25918;DHT22;13899;51.174;4.456;2023-03-01T09:09:35;4.40;99.90
25918;DHT22;13899;51.174;4.456;2023-03-01T09:12:02;4.40;99.90
25918;DHT22;13899;51.174;4.456;2023-03-01T09:14:27;4.50;99.90
25918;DHT22;13899;51.174;4.456;2023-03-01T09:16:53;4.40;99.90
25918;DHT22;13899;51.174;4.456;2023-03-01T09:19:19;4.40;99.90
25918;DHT22;13899;51.174;4.456;2023-03-01T09:21:45;4.70;99.90
25918;DHT22;13899;51.174;4.456;2023-03-01T09:24:21;4.80;99.90
25918;DHT22;13899;51.174;4.456;2023-03-01T09:26:47;4.90;99.90
25918;DHT22;13899;51.174;4.456;2023-03-01T09:29:13;5.00;99.90
25918;DHT22;13899;51.174;4.456;2023-03-01T09:31:39;5.10;99.90
25918;DHT22;13899;51.174;4.456;2023-03-01T09:34:06;5.20;99.90
25918;DHT22;13899;51.174;4.456;2023-03-01T09:36:31;5.30;99.90
25918;DHT22;13899;51.174;4.456;2023-03-01T09:38:57;5.60;99.90
25918;DHT22;13899;51.174;4.456;2023-03-01T09:41:47;5.80;99.90
25918;DHT22;13899;51.174;4.456;2023-03-01T09:44:22;6.10;99.90
25918;DHT22;13899;51.174;4.456;2023-03-01T09:46:52;6.50;99.90
25918;DHT22;13899;51.174;4.456;2023-03-01T09:49:24;6.80;99.90
25918;DHT22;13899;51.174;4.456;2023-03-01T09:52:21;6.80;99.90
25918;DHT22;13899;51.174;4.456;2023-03-01T09:54:51;6.90;99.90
25918;DHT22;13899;51.174;4.456;2023-03-01T10:00:09;7.50;99.90
25918;DHT22;13899;51.174;4.456;2023-03-01T10:02:43;8.10;99.90
25918;DHT22;13899;51.174;4.456;2023-03-01T10:05:43;8.10;99.90
25918;DHT22;13899;51.174;4.456;2023-03-01T10:08:56;8.60;99.90
25918;DHT22;13899;51.174;4.456;2023-03-01T10:10:58;9.30;99.90
25918;DHT22;13899;51.174;4.456;2023-03-01T10:19:01;9.90;99.90
25918;DHT22;13899;51.174;4.456;2023-03-01T10:21:28;10.40;99.90
25918;DHT22;13899;51.174;4.456;2023-03-01T10:24:05;11.00;99.90
25918;DHT22;13899;51.174;4.456;2023-03-01T10:26:43;11.40;99.90
25918;DHT22;13899;51.174;4.456;2023-03-01T10:29:11;11.70;99.90
25918;DHT22;13899;51.174;4.456;2023-03-01T10:31:51;12.00;99.90
25918;DHT22;13899;51.174;4.456;2023-03-01T10:34:38;12.40;99.90
25918;DHT22;13899;51.174;4.456;2023-03-01T10:37:17;12.80;97.60
25918;DHT22;13899;51.174;4.456;2023-03-01T10:40:04;13.10;96.30
25918;DHT22;13899;51.174;4.456;2023-03-01T10:42:47;13.00;96.20
25918;DHT22;13899;51.174;4.456;2023-03-01T10:50:32;12.20;93.90
25918;DHT22;13899;51.174;4.456;2023-03-01T10:53:02;12.40;93.30
25918;DHT22;13899;51.174;4.456;2023-03-01T10:55:37;12.90;93.70
25918;DHT22;13899;51.174;4.456;2023-03-01T10:58:21;12.90;92.40
25918;DHT22;13899;51.174;4.456;2023-03-01T11:00:53;12.60;92.20
25918;DHT22;13899;51.174;4.456;2023-03-01T11:03:38;12.70;92.10
25918;DHT22;13899;51.174;4.456;2023-03-01T11:06:05;13.10;92.80
25918;DHT22;13899;51.174;4.456;2023-03-01T11:08:44;14.30;90.90
25918;DHT22;13899;51.174;4.456;2023-03-01T11:11:32;15.30;89.80
25918;DHT22;13899;51.174;4.456;2023-03-01T11:14:15;15.70;84.80
25918;DHT22;13899;51.174;4.456;2023-03-01T11:16:45;16.20;81.40
25918;DHT22;13899;51.174;4.456;2023-03-01T11:22:03;15.60;77.70
25918;DHT22;13899;51.174;4.456;2023-03-01T11:24:39;15.90;76.70
25918;DHT22;13899;51.174;4.456;2023-03-01T11:27:08;16.20;72.10
25918;DHT22;13899;51.174;4.456;2023-03-01T11:29:52;16.00;73.40
25918;DHT22;13899;51.174;4.456;2023-03-01T11:32:22;16.50;69.60
25918;DHT22;13899;51.174;4.456;2023-03-01T11:35:02;16.90;67.40
25918;DHT22;13899;51.174;4.456;2023-03-01T11:37:40;17.00;67.40
25918;DHT22;13899;51.174;4.456;2023-03-01T11:41:25;17.10;65.60
25918;DHT22;13899;51.174;4.456;2023-03-01T11:49:39;15.30;68.80
25918;DHT22;13899;51.174;4.456;2023-03-01T11:58:02;16.90;61.50
25918;DHT22;13899;51.174;4.456;2023-03-01T12:01:01;17.40;61.50
25918;DHT22;13899;51.174;4.456;2023-03-01T12:03:30;18.00;58.70
25918;DHT22;13899;51.174;4.456;2023-03-01T12:08:43;17.10;58.60
25918;DHT22;13899;51.174;4.456;2023-03-01T12:11:50;17.60;58.50
25918;DHT22;13899;51.174;4.456;2023-03-01T12:20:26;18.70;53.80
25918;DHT22;13899;51.174;4.456;2023-03-01T12:28:45;17.60;56.40
25918;DHT22;13899;51.174;4.456;2023-03-01T12:39:54;18.10;53.20
25918;DHT22;13899;51.174;4.456;2023-03-01T12:48:20;18.90;53.00
25918;DHT22;13899;51.174;4.456;2023-03-01T12:50:52;18.90;51.80
25918;DHT22;13899;51.174;4.456;2023-03-01T12:53:34;18.40;52.50
25918;DHT22;13899;51.174;4.456;2023-03-01T12:56:05;18.60;52.60
25918;DHT22;13899;51.174;4.456;2023-03-01T13:01:19;17.70;51.40
25918;DHT22;13899;51.174;4.456;2023-03-01T13:09:46;17.80;51.20
25918;DHT22;13899;51.174;4.456;2023-03-01T13:15:26;17.70;53.10
25918;DHT22;13899;51.174;4.456;2023-03-01T13:17:55;18.00;51.50
25918;DHT22;13899;51.174;4.456;2023-03-01T13:20:30;18.20;50.90
25918;DHT22;13899;51.174;4.456;2023-03-01T13:23:03;18.20;50.20
25918;DHT22;13899;51.174;4.456;2023-03-01T13:25:29;16.60;52.20
25918;DHT22;13899;51.174;4.456;2023-03-01T13:30:59;17.60;52.80
25918;DHT22;13899;51.174;4.456;2023-03-01T13:35:54;17.70;51.00
25918;DHT22;13899;51.174;4.456;2023-03-01T13:41:27;17.80;51.30
25918;DHT22;13899;51.174;4.456;2023-03-01T13:46:44;17.30;51.60
25918;DHT22;13899;51.174;4.456;2023-03-01T13:49:16;17.80;51.80
25918;DHT22;13899;51.174;4.456;2023-03-01T13:51:46;18.30;51.00
25918;DHT22;13899;51.174;4.456;2023-03-01T13:54:14;16.90;51.90
25918;DHT22;13899;51.174;4.456;2023-03-01T13:56:44;17.10;52.00
25918;DHT22;13899;51.174;4.456;2023-03-01T13:59:21;16.60;53.30
25918;DHT22;13899;51.174;4.456;2023-03-01T14:01:56;17.00;51.70
25918;DHT22;13899;51.174;4.456;2023-03-01T14:04:25;17.60;52.30
25918;DHT22;13899;51.174;4.456;2023-03-01T14:07:11;18.10;50.90
25918;DHT22;13899;51.174;4.456;2023-03-01T14:09:40;18.30;51.00
25918;DHT22;13899;51.174;4.456;2023-03-01T14:15:15;17.80;50.00
25918;DHT22;13899;51.174;4.456;2023-03-01T14:17:46;16.40;51.70
25918;DHT22;13899;51.174;4.456;2023-03-01T14:20:20;16.00;54.60
25918;DHT22;13899;51.174;4.456;2023-03-01T14:22:47;16.00;52.90
25918;DHT22;13899;51.174;4.456;2023-03-01T14:25:27;16.30;54.00
25918;DHT22;13899;51.174;4.456;2023-03-01T14:28:02;16.90;51.60
25918;DHT22;13899;51.174;4.456;2023-03-01T14:30:37;16.70;52.10
25918;DHT22;13899;51.174;4.456;2023-03-01T14:33:06;16.60;52.30
25918;DHT22;13899;51.174;4.456;2023-03-01T14:35:42;16.90;53.20
25918;DHT22;13899;51.174;4.456;2023-03-01T14:38:28;17.00;51.90
25918;DHT22;13899;51.174;4.456;2023-03-01T14:40:57;16.50;52.90
25918;DHT22;13899;51.174;4.456;2023-03-01T14:43:23;16.80;53.00
25918;DHT22;13899;51.174;4.456;2023-03-01T14:45:51;17.30;52.30
25918;DHT22;13899;51.174;4.456;2023-03-01T14:48:17;17.70;51.10
25918;DHT22;13899;51.174;4.456;2023-03-01T14:50:50;16.70;51.90
25918;DHT22;13899;51.174;4.456;2023-03-01T14:53:19;16.60;52.80
25918;DHT22;13899;51.174;4.456;2023-03-01T14:55:50;17.10;52.20
25918;DHT22;13899;51.174;4.456;2023-03-01T14:58:21;17.30;51.40
25918;DHT22;13899;51.174;4.456;2023-03-01T15:01:05;17.50;51.40
25918;DHT22;13899;51.174;4.456;2023-03-01T15:06:02;15.70;53.30
25918;DHT22;13899;51.174;4.456;2023-03-01T15:08:28;15.90;53.50
25918;DHT22;13899;51.174;4.456;2023-03-01T15:13:40;17.50;53.20
25918;DHT22;13899;51.174;4.456;2023-03-01T15:16:09;18.60;52.00
25918;DHT22;13899;51.174;4.456;2023-03-01T15:18:35;18.50;51.00
25918;DHT22;13899;51.174;4.456;2023-03-01T15:21:14;17.30;52.40
25918;DHT22;13899;51.174;4.456;2023-03-01T15:23:40;17.50;51.60
25918;DHT22;13899;51.174;4.456;2023-03-01T15:26:16;18.30;51.70
25918;DHT22;13899;51.174;4.456;2023-03-01T15:28:51;18.60;50.40
25918;DHT22;13899;51.174;4.456;2023-03-01T15:31:31;17.90;51.00
25918;DHT22;13899;51.174;4.456;2023-03-01T15:40:24;17.60;51.40
25918;DHT22;13899;51.174;4.456;2023-03-01T15:42:58;18.50;51.00
25918;DHT22;13899;51.174;4.456;2023-03-01T15:45:27;18.90;49.40
25918;DHT22;13899;51.174;4.456;2023-03-01T15:48:18;19.10;48.90
25918;DHT22;13899;51.174;4.456;2023-03-01T15:50:55;18.10;49.50
25918;DHT22;13899;51.174;4.456;2023-03-01T15:53:21;16.10;51.80
25918;DHT22;13899;51.174;4.456;2023-03-01T15:55:46;16.00;53.00
25918;DHT22;13899;51.174;4.456;2023-03-01T15:58:19;15.90;52.50
25918;DHT22;13899;51.174;4.456;2023-03-01T16:00:47;16.40;53.30
25918;DHT22;13899;51.174;4.456;2023-03-01T16:03:16;16.90;52.40
25918;DHT22;13899;51.174;4.456;2023-03-01T16:05:48;16.80;52.00
25918;DHT22;13899;51.174;4.456;2023-03-01T16:08:14;17.00;52.00
25918;DHT22;13899;51.174;4.456;2023-03-01T16:10:41;16.60;51.90
25918;DHT22;13899;51.174;4.456;2023-03-01T16:13:09;15.60;52.50
25918;DHT22;13899;51.174;4.456;2023-03-01T16:15:35;15.20;52.80
25918;DHT22;13899;51.174;4.456;2023-03-01T16:18:01;14.80;53.10
25918;DHT22;13899;51.174;4.456;2023-03-01T16:20:28;15.30;53.50
25918;DHT22;13899;51.174;4.456;2023-03-01T16:23:01;15.20;53.70
25918;DHT22;13899;51.174;4.456;2023-03-01T16:25:26;14.50;53.40
25918;DHT22;13899;51.174;4.456;2023-03-01T16:27:52;14.40;54.40
25918;DHT22;13899;51.174;4.456;2023-03-01T16:30:20;14.30;55.50
25918;DHT22;13899;51.174;4.456;2023-03-01T16:32:47;14.00;55.20
25918;DHT22;13899;51.174;4.456;2023-03-01T16:35:15;12.80;56.60
25918;DHT22;13899;51.174;4.456;2023-03-01T16:37:41;12.10;58.00
25918;DHT22;13899;51.174;4.456;2023-03-01T16:42:41;11.40;61.90
25918;DHT22;13899;51.174;4.456;2023-03-01T16:45:08;11.20;61.50
25918;DHT22;13899;51.174;4.456;2023-03-01T16:47:34;10.50;62.80
25918;DHT22;13899;51.174;4.456;2023-03-01T16:50:00;10.20;64.50
25918;DHT22;13899;51.174;4.456;2023-03-01T16:52:26;10.20;65.20
25918;DHT22;13899;51.174;4.456;2023-03-01T16:54:52;10.20;67.10
25918;DHT22;13899;51.174;4.456;2023-03-01T16:57:18;10.30;67.00
25918;DHT22;13899;51.174;4.456;2023-03-01T16:59:44;10.00;66.90
25918;DHT22;13899;51.174;4.456;2023-03-01T17:02:11;10.10;67.50
25918;DHT22;13899;51.174;4.456;2023-03-01T17:04:40;10.30;68.60
25918;DHT22;13899;51.174;4.456;2023-03-01T17:07:06;10.50;67.60
25918;DHT22;13899;51.174;4.456;2023-03-01T17:09:36;10.70;67.30
25918;DHT22;13899;51.174;4.456;2023-03-01T17:12:03;10.20;68.00
25918;DHT22;13899;51.174;4.456;2023-03-01T17:14:28;9.80;70.70
25918;DHT22;13899;51.174;4.456;2023-03-01T17:16:54;9.90;70.30
25918;DHT22;13899;51.174;4.456;2023-03-01T17:19:20;10.10;71.60
25918;DHT22;13899;51.174;4.456;2023-03-01T17:21:46;10.00;71.20
25918;DHT22;13899;51.174;4.456;2023-03-01T17:24:12;9.80;72.70
25918;DHT22;13899;51.174;4.456;2023-03-01T17:26:38;9.80;73.00
25918;DHT22;13899;51.174;4.456;2023-03-01T17:29:05;9.70;73.40
25918;DHT22;13899;51.174;4.456;2023-03-01T17:31:31;9.60;74.30
25918;DHT22;13899;51.174;4.456;2023-03-01T17:33:57;9.50;75.40
25918;DHT22;13899;51.174;4.456;2023-03-01T17:36:23;9.30;77.30
25918;DHT22;13899;51.174;4.456;2023-03-01T17:38:50;9.40;77.50
25918;DHT22;13899;51.174;4.456;2023-03-01T17:41:17;9.30;78.70